sensor_id;sensor_type;location;lat;lon;timestamp;P1;durP1;ratioP1;P2;durP2;ratioP2
15142;SDS011;7672;50.834;6.286;2022-08-21T00:00:41;5.00;;;3.40;;
15142;SDS011;7672;50.834;6.286;2022-08-21T00:03:09;7.60;;;3.17;;
15142;SDS011;7672;50.834;6.286;2022-08-21T00:05:40;7.97;;;3.53;;
15142;SDS011;7672;50.834;6.286;2022-08-21T00:08:13;12.40;;;3.33;;
15142;SDS011;7672;50.834;6.286;2022-08-21T00:10:40;4.73;;;3.07;;
15142;SDS011;7672;50.834;6.286;2022-08-21T00:13:09;5.93;;;2.93;;
15142;SDS011;7672;50.834;6.286;2022-08-21T00:15:37;4.90;;;2.93;;
15142;SDS011;7672;50.834;6.286;2022-08-21T00:18:08;6.07;;;3.63;;
15142;SDS011;7672;50.834;6.286;2022-08-21T00:20:37;5.93;;;3.20;;
15142;SDS011;7672;50.834;6.286;2022-08-21T00:23:05;4.60;;;3.57;;
15142;SDS011;7672;50.834;6.286;2022-08-21T00:25:34;9.53;;;3.33;;
15142;SDS011;7672;50.834;6.286;2022-08-21T00:28:00;6.40;;;3.27;;
15142;SDS011;7672;50.834;6.286;2022-08-21T00:30:28;14.30;;;3.50;;
15142;SDS011;7672;50.834;6.286;2022-08-21T00:32:57;6.60;;;3.40;;
15142;SDS011;7672;50.834;6.286;2022-08-21T00:35:27;5.27;;;3.40;;
15142;SDS011;7672;50.834;6.286;2022-08-21T00:37:58;6.53;;;3.60;;
15142;SDS011;7672;50.834;6.286;2022-08-21T00:40:28;7.10;;;3.17;;
15142;SDS011;7672;50.834;6.286;2022-08-21T00:43:06;6.20;;;3.70;;
15142;SDS011;7672;50.834;6.286;2022-08-21T00:45:38;7.33;;;3.57;;
15142;SDS011;7672;50.834;6.286;2022-08-21T00:48:05;6.80;;;3.47;;
15142;SDS011;7672;50.834;6.286;2022-08-21T00:50:33;4.77;;;3.17;;
15142;SDS011;7672;50.834;6.286;2022-08-21T00:53:12;5.90;;;3.07;;
15142;SDS011;7672;50.834;6.286;2022-08-21T00:55:41;7.00;;;3.50;;
15142;SDS011;7672;50.834;6.286;2022-08-21T00:58:11;7.40;;;3.53;;
15142;SDS011;7672;50.834;6.286;2022-08-21T01:00:43;9.80;;;3.13;;
15142;SDS011;7672;50.834;6.286;2022-08-21T01:03:16;6.30;;;3.73;;
15142;SDS011;7672;50.834;6.286;2022-08-21T01:05:53;6.30;;;3.23;;
15142;SDS011;7672;50.834;6.286;2022-08-21T01:08:20;4.87;;;3.20;;
15142;SDS011;7672;50.834;6.286;2022-08-21T01:10:50;8.37;;;3.80;;
15142;SDS011;7672;50.834;6.286;2022-08-21T01:13:20;4.47;;;3.37;;
15142;SDS011;7672;50.834;6.286;2022-08-21T01:16:00;5.07;;;3.20;;
15142;SDS011;7672;50.834;6.286;2022-08-21T01:18:32;10.47;;;3.67;;
15142;SDS011;7672;50.834;6.286;2022-08-21T01:21:00;10.07;;;3.57;;
15142;SDS011;7672;50.834;6.286;2022-08-21T01:23:50;4.33;;;3.10;;
15142;SDS011;7672;50.834;6.286;2022-08-21T01:26:22;8.40;;;3.80;;
15142;SDS011;7672;50.834;6.286;2022-08-21T01:29:01;11.10;;;4.50;;
15142;SDS011;7672;50.834;6.286;2022-08-21T01:32:08;9.73;;;3.93;;
15142;SDS011;7672;50.834;6.286;2022-08-21T01:34:43;6.50;;;4.20;;
15142;SDS011;7672;50.834;6.286;2022-08-21T01:37:12;6.47;;;4.07;;
15142;SDS011;7672;50.834;6.286;2022-08-21T01:39:43;7.90;;;4.10;;
15142;SDS011;7672;50.834;6.286;2022-08-21T01:42:10;7.63;;;3.70;;
15142;SDS011;7672;50.834;6.286;2022-08-21T01:44:41;6.23;;;3.53;;
15142;SDS011;7672;50.834;6.286;2022-08-21T01:47:10;5.90;;;3.90;;
15142;SDS011;7672;50.834;6.286;2022-08-21T01:49:40;9.10;;;3.97;;
15142;SDS011;7672;50.834;6.286;2022-08-21T01:52:11;5.03;;;3.70;;
15142;SDS011;7672;50.834;6.286;2022-08-21T01:54:38;5.83;;;3.83;;
15142;SDS011;7672;50.834;6.286;2022-08-21T01:57:09;10.30;;;4.30;;
15142;SDS011;7672;50.834;6.286;2022-08-21T01:59:39;7.57;;;4.47;;
15142;SDS011;7672;50.834;6.286;2022-08-21T02:02:09;6.87;;;4.20;;
15142;SDS011;7672;50.834;6.286;2022-08-21T02:04:39;9.77;;;4.60;;
15142;SDS011;7672;50.834;6.286;2022-08-21T02:07:12;5.17;;;3.87;;
15142;SDS011;7672;50.834;6.286;2022-08-21T02:09:39;4.30;;;3.87;;
15142;SDS011;7672;50.834;6.286;2022-08-21T02:12:10;9.10;;;4.53;;
15142;SDS011;7672;50.834;6.286;2022-08-21T02:14:38;8.07;;;3.90;;
15142;SDS011;7672;50.834;6.286;2022-08-21T02:17:05;9.17;;;4.30;;
15142;SDS011;7672;50.834;6.286;2022-08-21T02:19:35;8.50;;;4.03;;
15142;SDS011;7672;50.834;6.286;2022-08-21T02:22:07;9.40;;;4.70;;
15142;SDS011;7672;50.834;6.286;2022-08-21T02:24:36;10.87;;;4.70;;
15142;SDS011;7672;50.834;6.286;2022-08-21T02:27:20;14.03;;;5.00;;
15142;SDS011;7672;50.834;6.286;2022-08-21T02:29:53;7.03;;;4.10;;
15142;SDS011;7672;50.834;6.286;2022-08-21T02:32:25;5.97;;;4.47;;
15142;SDS011;7672;50.834;6.286;2022-08-21T02:34:56;5.23;;;4.17;;
15142;SDS011;7672;50.834;6.286;2022-08-21T02:37:26;5.97;;;4.40;;
15142;SDS011;7672;50.834;6.286;2022-08-21T02:40:02;5.57;;;4.10;;
15142;SDS011;7672;50.834;6.286;2022-08-21T02:42:29;8.97;;;4.00;;
15142;SDS011;7672;50.834;6.286;2022-08-21T02:45:03;10.00;;;4.10;;
15142;SDS011;7672;50.834;6.286;2022-08-21T02:47:30;4.40;;;3.97;;
15142;SDS011;7672;50.834;6.286;2022-08-21T02:50:00;5.53;;;4.10;;
15142;SDS011;7672;50.834;6.286;2022-08-21T02:52:27;5.03;;;4.50;;
15142;SDS011;7672;50.834;6.286;2022-08-21T02:54:53;9.50;;;4.33;;
15142;SDS011;7672;50.834;6.286;2022-08-21T02:57:20;5.37;;;4.27;;
15142;SDS011;7672;50.834;6.286;2022-08-21T02:59:47;7.83;;;4.40;;
15142;SDS011;7672;50.834;6.286;2022-08-21T03:02:14;7.97;;;4.20;;
15142;SDS011;7672;50.834;6.286;2022-08-21T03:04:41;8.23;;;3.93;;
15142;SDS011;7672;50.834;6.286;2022-08-21T03:07:12;13.37;;;4.37;;
15142;SDS011;7672;50.834;6.286;2022-08-21T03:09:39;8.13;;;4.07;;
15142;SDS011;7672;50.834;6.286;2022-08-21T03:12:21;5.27;;;3.80;;
15142;SDS011;7672;50.834;6.286;2022-08-21T03:14:55;5.67;;;3.33;;
15142;SDS011;7672;50.834;6.286;2022-08-21T03:17:21;5.73;;;4.27;;
15142;SDS011;7672;50.834;6.286;2022-08-21T03:19:55;5.77;;;4.00;;
15142;SDS011;7672;50.834;6.286;2022-08-21T03:22:23;6.20;;;3.97;;
15142;SDS011;7672;50.834;6.286;2022-08-21T03:24:52;6.03;;;4.00;;
15142;SDS011;7672;50.834;6.286;2022-08-21T03:27:26;6.53;;;3.80;;
15142;SDS011;7672;50.834;6.286;2022-08-21T03:29:59;8.93;;;3.73;;
15142;SDS011;7672;50.834;6.286;2022-08-21T03:32:35;5.10;;;3.60;;
15142;SDS011;7672;50.834;6.286;2022-08-21T03:35:20;9.77;;;4.27;;
15142;SDS011;7672;50.834;6.286;2022-08-21T03:37:47;7.23;;;3.20;;
15142;SDS011;7672;50.834;6.286;2022-08-21T03:40:17;8.80;;;3.60;;
15142;SDS011;7672;50.834;6.286;2022-08-21T03:42:46;4.63;;;3.53;;
15142;SDS011;7672;50.834;6.286;2022-08-21T03:45:22;11.07;;;3.80;;
15142;SDS011;7672;50.834;6.286;2022-08-21T03:47:58;4.00;;;3.53;;
15142;SDS011;7672;50.834;6.286;2022-08-21T03:50:32;6.80;;;3.20;;
15142;SDS011;7672;50.834;6.286;2022-08-21T03:53:19;8.57;;;3.23;;
15142;SDS011;7672;50.834;6.286;2022-08-21T03:55:55;7.97;;;3.30;;
15142;SDS011;7672;50.834;6.286;2022-08-21T03:58:23;4.67;;;3.10;;
15142;SDS011;7672;50.834;6.286;2022-08-21T04:00:56;8.53;;;3.50;;
15142;SDS011;7672;50.834;6.286;2022-08-21T04:03:27;6.80;;;3.17;;
15142;SDS011;7672;50.834;6.286;2022-08-21T04:05:54;5.20;;;2.90;;
15142;SDS011;7672;50.834;6.286;2022-08-21T04:08:22;6.23;;;3.57;;
15142;SDS011;7672;50.834;6.286;2022-08-21T04:10:51;6.83;;;3.37;;
15142;SDS011;7672;50.834;6.286;2022-08-21T04:13:25;5.50;;;3.33;;
15142;SDS011;7672;50.834;6.286;2022-08-21T04:15:54;5.70;;;3.37;;
15142;SDS011;7672;50.834;6.286;2022-08-21T04:18:24;9.57;;;4.03;;
15142;SDS011;7672;50.834;6.286;2022-08-21T04:20:57;6.17;;;3.17;;
15142;SDS011;7672;50.834;6.286;2022-08-21T04:23:30;6.20;;;3.13;;
15142;SDS011;7672;50.834;6.286;2022-08-21T04:25:57;5.80;;;3.20;;
15142;SDS011;7672;50.834;6.286;2022-08-21T04:28:26;4.83;;;2.90;;
15142;SDS011;7672;50.834;6.286;2022-08-21T04:31:03;6.33;;;3.30;;
15142;SDS011;7672;50.834;6.286;2022-08-21T04:33:35;7.53;;;3.70;;
15142;SDS011;7672;50.834;6.286;2022-08-21T04:36:03;7.27;;;3.20;;
15142;SDS011;7672;50.834;6.286;2022-08-21T04:38:35;8.03;;;3.63;;
15142;SDS011;7672;50.834;6.286;2022-08-21T04:41:03;5.37;;;3.57;;
15142;SDS011;7672;50.834;6.286;2022-08-21T04:43:31;8.50;;;2.97;;
15142;SDS011;7672;50.834;6.286;2022-08-21T04:46:02;5.57;;;2.73;;
15142;SDS011;7672;50.834;6.286;2022-08-21T04:48:38;5.77;;;3.23;;
15142;SDS011;7672;50.834;6.286;2022-08-21T04:51:39;5.03;;;2.80;;
15142;SDS011;7672;50.834;6.286;2022-08-21T04:54:09;9.70;;;3.60;;
15142;SDS011;7672;50.834;6.286;2022-08-21T04:56:45;9.03;;;3.20;;
15142;SDS011;7672;50.834;6.286;2022-08-21T04:59:30;6.60;;;2.80;;
15142;SDS011;7672;50.834;6.286;2022-08-21T05:02:16;4.43;;;2.60;;
15142;SDS011;7672;50.834;6.286;2022-08-21T05:05:04;4.90;;;3.00;;
15142;SDS011;7672;50.834;6.286;2022-08-21T05:07:44;8.90;;;3.00;;
15142;SDS011;7672;50.834;6.286;2022-08-21T05:10:38;9.73;;;3.17;;
15142;SDS011;7672;50.834;6.286;2022-08-21T05:13:16;8.10;;;2.87;;
15142;SDS011;7672;50.834;6.286;2022-08-21T05:15:43;6.33;;;3.17;;
15142;SDS011;7672;50.834;6.286;2022-08-21T05:18:12;3.80;;;2.87;;
15142;SDS011;7672;50.834;6.286;2022-08-21T05:20:46;9.20;;;2.97;;
15142;SDS011;7672;50.834;6.286;2022-08-21T05:23:18;5.83;;;3.13;;
15142;SDS011;7672;50.834;6.286;2022-08-21T05:26:29;4.47;;;2.70;;
15142;SDS011;7672;50.834;6.286;2022-08-21T05:29:08;4.47;;;2.60;;
15142;SDS011;7672;50.834;6.286;2022-08-21T05:31:38;4.87;;;2.53;;
15142;SDS011;7672;50.834;6.286;2022-08-21T05:34:08;5.00;;;3.00;;
15142;SDS011;7672;50.834;6.286;2022-08-21T05:36:50;8.53;;;3.10;;
15142;SDS011;7672;50.834;6.286;2022-08-21T05:39:23;4.90;;;2.50;;
15142;SDS011;7672;50.834;6.286;2022-08-21T05:41:49;7.90;;;2.93;;
15142;SDS011;7672;50.834;6.286;2022-08-21T05:44:16;4.40;;;2.43;;
15142;SDS011;7672;50.834;6.286;2022-08-21T05:46:47;8.30;;;2.73;;
15142;SDS011;7672;50.834;6.286;2022-08-21T05:49:14;6.67;;;2.73;;
15142;SDS011;7672;50.834;6.286;2022-08-21T05:51:48;7.00;;;3.33;;
15142;SDS011;7672;50.834;6.286;2022-08-21T05:54:15;6.37;;;2.80;;
15142;SDS011;7672;50.834;6.286;2022-08-21T05:56:43;6.07;;;2.80;;
15142;SDS011;7672;50.834;6.286;2022-08-21T05:59:10;3.20;;;2.33;;
15142;SDS011;7672;50.834;6.286;2022-08-21T06:01:39;5.50;;;2.53;;
15142;SDS011;7672;50.834;6.286;2022-08-21T06:04:08;5.07;;;2.43;;
15142;SDS011;7672;50.834;6.286;2022-08-21T06:06:39;9.10;;;2.83;;
15142;SDS011;7672;50.834;6.286;2022-08-21T06:09:06;9.07;;;2.70;;
15142;SDS011;7672;50.834;6.286;2022-08-21T06:11:33;9.27;;;2.80;;
15142;SDS011;7672;50.834;6.286;2022-08-21T06:14:00;4.77;;;2.13;;
15142;SDS011;7672;50.834;6.286;2022-08-21T06:16:28;8.10;;;3.37;;
15142;SDS011;7672;50.834;6.286;2022-08-21T06:18:55;8.33;;;2.53;;
15142;SDS011;7672;50.834;6.286;2022-08-21T06:21:27;6.07;;;2.83;;
15142;SDS011;7672;50.834;6.286;2022-08-21T06:23:54;4.80;;;2.63;;
15142;SDS011;7672;50.834;6.286;2022-08-21T06:26:21;5.67;;;2.53;;
15142;SDS011;7672;50.834;6.286;2022-08-21T06:28:49;9.95;;;2.70;;
15142;SDS011;7672;50.834;6.286;2022-08-21T06:31:17;5.50;;;2.30;;
15142;SDS011;7672;50.834;6.286;2022-08-21T06:33:49;6.93;;;2.60;;
15142;SDS011;7672;50.834;6.286;2022-08-21T06:36:16;9.93;;;2.63;;
15142;SDS011;7672;50.834;6.286;2022-08-21T06:38:44;11.95;;;3.00;;
15142;SDS011;7672;50.834;6.286;2022-08-21T06:41:17;4.72;;;2.20;;
15142;SDS011;7672;50.834;6.286;2022-08-21T06:43:51;5.57;;;2.38;;
15142;SDS011;7672;50.834;6.286;2022-08-21T06:46:20;4.45;;;2.45;;
15142;SDS011;7672;50.834;6.286;2022-08-21T06:48:48;6.13;;;2.47;;
15142;SDS011;7672;50.834;6.286;2022-08-21T06:51:15;5.70;;;2.30;;
15142;SDS011;7672;50.834;6.286;2022-08-21T06:53:42;5.57;;;2.53;;
15142;SDS011;7672;50.834;6.286;2022-08-21T06:56:09;3.97;;;2.53;;
15142;SDS011;7672;50.834;6.286;2022-08-21T06:58:36;4.18;;;2.20;;
15142;SDS011;7672;50.834;6.286;2022-08-21T07:01:04;4.95;;;2.20;;
15142;SDS011;7672;50.834;6.286;2022-08-21T07:03:35;4.63;;;2.30;;
15142;SDS011;7672;50.834;6.286;2022-08-21T07:06:05;4.47;;;2.28;;
15142;SDS011;7672;50.834;6.286;2022-08-21T07:08:35;5.50;;;2.20;;
15142;SDS011;7672;50.834;6.286;2022-08-21T07:11:09;6.43;;;3.67;;
15142;SDS011;7672;50.834;6.286;2022-08-21T07:13:42;5.25;;;2.13;;
15142;SDS011;7672;50.834;6.286;2022-08-21T07:16:10;8.75;;;2.50;;
15142;SDS011;7672;50.834;6.286;2022-08-21T07:18:37;3.92;;;2.28;;
15142;SDS011;7672;50.834;6.286;2022-08-21T07:21:04;4.90;;;3.25;;
15142;SDS011;7672;50.834;6.286;2022-08-21T07:23:36;5.97;;;3.05;;
15142;SDS011;7672;50.834;6.286;2022-08-21T07:26:13;4.47;;;2.55;;
15142;SDS011;7672;50.834;6.286;2022-08-21T07:28:42;4.07;;;2.13;;
15142;SDS011;7672;50.834;6.286;2022-08-21T07:31:10;4.15;;;2.40;;
15142;SDS011;7672;50.834;6.286;2022-08-21T07:33:41;6.13;;;2.60;;
15142;SDS011;7672;50.834;6.286;2022-08-21T07:36:09;4.38;;;1.90;;
15142;SDS011;7672;50.834;6.286;2022-08-21T07:38:37;3.38;;;2.03;;
15142;SDS011;7672;50.834;6.286;2022-08-21T07:41:07;6.00;;;2.17;;
15142;SDS011;7672;50.834;6.286;2022-08-21T07:43:45;4.72;;;2.15;;
15142;SDS011;7672;50.834;6.286;2022-08-21T07:46:13;3.88;;;2.17;;
15142;SDS011;7672;50.834;6.286;2022-08-21T07:48:41;2.08;;;1.67;;
15142;SDS011;7672;50.834;6.286;2022-08-21T07:51:09;2.75;;;2.00;;
15142;SDS011;7672;50.834;6.286;2022-08-21T07:53:40;5.55;;;2.35;;
15142;SDS011;7672;50.834;6.286;2022-08-21T07:56:07;2.28;;;1.58;;
15142;SDS011;7672;50.834;6.286;2022-08-21T07:58:35;1.50;;;1.20;;
15142;SDS011;7672;50.834;6.286;2022-08-21T08:01:02;3.22;;;1.75;;
15142;SDS011;7672;50.834;6.286;2022-08-21T08:03:29;5.18;;;1.85;;
15142;SDS011;7672;50.834;6.286;2022-08-21T08:05:56;3.33;;;1.63;;
15142;SDS011;7672;50.834;6.286;2022-08-21T08:08:23;2.95;;;1.60;;
15142;SDS011;7672;50.834;6.286;2022-08-21T08:10:53;4.20;;;2.08;;
15142;SDS011;7672;50.834;6.286;2022-08-21T08:13:25;3.28;;;1.70;;
15142;SDS011;7672;50.834;6.286;2022-08-21T08:15:54;3.25;;;1.60;;
15142;SDS011;7672;50.834;6.286;2022-08-21T08:18:24;2.70;;;1.58;;
15142;SDS011;7672;50.834;6.286;2022-08-21T08:20:51;3.47;;;1.80;;
15142;SDS011;7672;50.834;6.286;2022-08-21T08:23:18;3.10;;;1.67;;
15142;SDS011;7672;50.834;6.286;2022-08-21T08:25:48;2.80;;;1.75;;
15142;SDS011;7672;50.834;6.286;2022-08-21T08:28:14;3.67;;;1.52;;
15142;SDS011;7672;50.834;6.286;2022-08-21T08:30:44;2.78;;;1.90;;
15142;SDS011;7672;50.834;6.286;2022-08-21T08:33:12;5.20;;;1.63;;
15142;SDS011;7672;50.834;6.286;2022-08-21T08:35:41;5.10;;;1.38;;
15142;SDS011;7672;50.834;6.286;2022-08-21T08:38:15;5.50;;;1.90;;
15142;SDS011;7672;50.834;6.286;2022-08-21T08:41:07;3.08;;;1.90;;
15142;SDS011;7672;50.834;6.286;2022-08-21T08:43:59;2.92;;;1.70;;
15142;SDS011;7672;50.834;6.286;2022-08-21T08:46:47;3.03;;;1.92;;
15142;SDS011;7672;50.834;6.286;2022-08-21T08:49:38;5.55;;;2.30;;
15142;SDS011;7672;50.834;6.286;2022-08-21T08:52:51;3.40;;;1.85;;
15142;SDS011;7672;50.834;6.286;2022-08-21T08:55:39;4.85;;;2.05;;
15142;SDS011;7672;50.834;6.286;2022-08-21T08:58:12;3.95;;;2.10;;
15142;SDS011;7672;50.834;6.286;2022-08-21T09:01:19;4.68;;;2.10;;
15142;SDS011;7672;50.834;6.286;2022-08-21T09:04:03;3.50;;;1.92;;
15142;SDS011;7672;50.834;6.286;2022-08-21T09:10:09;4.20;;;1.85;;
15142;SDS011;7672;50.834;6.286;2022-08-21T09:13:01;5.30;;;1.75;;
15142;SDS011;7672;50.834;6.286;2022-08-21T09:28:30;3.75;;;2.22;;
15142;SDS011;7672;50.834;6.286;2022-08-21T09:31:19;3.92;;;2.17;;
15142;SDS011;7672;50.834;6.286;2022-08-21T09:34:09;6.30;;;2.20;;
15142;SDS011;7672;50.834;6.286;2022-08-21T09:36:45;3.05;;;2.22;;
15142;SDS011;7672;50.834;6.286;2022-08-21T09:39:31;5.95;;;2.15;;
15142;SDS011;7672;50.834;6.286;2022-08-21T09:42:33;3.53;;;1.95;;
15142;SDS011;7672;50.834;6.286;2022-08-21T09:45:14;4.65;;;2.35;;
15142;SDS011;7672;50.834;6.286;2022-08-21T09:47:44;3.42;;;2.15;;
15142;SDS011;7672;50.834;6.286;2022-08-21T09:50:15;4.72;;;2.08;;
15142;SDS011;7672;50.834;6.286;2022-08-21T09:52:56;3.80;;;2.10;;
15142;SDS011;7672;50.834;6.286;2022-08-21T09:55:32;4.82;;;2.20;;
15142;SDS011;7672;50.834;6.286;2022-08-21T09:58:33;5.03;;;2.05;;
15142;SDS011;7672;50.834;6.286;2022-08-21T10:01:04;5.03;;;2.15;;
15142;SDS011;7672;50.834;6.286;2022-08-21T10:03:38;7.53;;;1.88;;
15142;SDS011;7672;50.834;6.286;2022-08-21T10:06:07;4.45;;;2.03;;
15142;SDS011;7672;50.834;6.286;2022-08-21T10:08:38;4.30;;;1.80;;
15142;SDS011;7672;50.834;6.286;2022-08-21T10:11:11;3.90;;;1.90;;
15142;SDS011;7672;50.834;6.286;2022-08-21T10:13:59;4.07;;;2.10;;
15142;SDS011;7672;50.834;6.286;2022-08-21T10:16:52;4.53;;;2.20;;
15142;SDS011;7672;50.834;6.286;2022-08-21T10:30:46;4.22;;;2.20;;
15142;SDS011;7672;50.834;6.286;2022-08-21T10:33:57;3.30;;;2.13;;
15142;SDS011;7672;50.834;6.286;2022-08-21T10:43:08;6.22;;;2.78;;
15142;SDS011;7672;50.834;6.286;2022-08-21T10:46:22;3.58;;;2.30;;
15142;SDS011;7672;50.834;6.286;2022-08-21T10:51:47;5.85;;;2.45;;
15142;SDS011;7672;50.834;6.286;2022-08-21T10:58:09;4.68;;;2.17;;
15142;SDS011;7672;50.834;6.286;2022-08-21T11:00:57;4.60;;;2.45;;
15142;SDS011;7672;50.834;6.286;2022-08-21T11:03:44;4.07;;;2.20;;
15142;SDS011;7672;50.834;6.286;2022-08-21T11:10:51;4.18;;;2.67;;
15142;SDS011;7672;50.834;6.286;2022-08-21T11:13:40;4.28;;;2.53;;
15142;SDS011;7672;50.834;6.286;2022-08-21T11:16:21;4.18;;;2.42;;
15142;SDS011;7672;50.834;6.286;2022-08-21T11:22:33;4.35;;;1.85;;
15142;SDS011;7672;50.834;6.286;2022-08-21T11:28:06;3.33;;;2.22;;
15142;SDS011;7672;50.834;6.286;2022-08-21T11:33:54;3.53;;;2.20;;
15142;SDS011;7672;50.834;6.286;2022-08-21T11:39:42;4.55;;;2.38;;
15142;SDS011;7672;50.834;6.286;2022-08-21T11:45:22;3.78;;;2.28;;
15142;SDS011;7672;50.834;6.286;2022-08-21T11:48:07;4.55;;;2.22;;
15142;SDS011;7672;50.834;6.286;2022-08-21T11:50:56;3.67;;;2.08;;
15142;SDS011;7672;50.834;6.286;2022-08-21T11:53:39;4.43;;;2.08;;
15142;SDS011;7672;50.834;6.286;2022-08-21T11:56:27;3.85;;;2.28;;
15142;SDS011;7672;50.834;6.286;2022-08-21T11:59:06;3.78;;;2.05;;
15142;SDS011;7672;50.834;6.286;2022-08-21T12:02:10;6.18;;;2.53;;
15142;SDS011;7672;50.834;6.286;2022-08-21T12:04:50;5.43;;;2.33;;
15142;SDS011;7672;50.834;6.286;2022-08-21T12:07:37;5.28;;;2.47;;
15142;SDS011;7672;50.834;6.286;2022-08-21T12:10:13;3.70;;;2.15;;
15142;SDS011;7672;50.834;6.286;2022-08-21T12:12:47;4.65;;;2.40;;
15142;SDS011;7672;50.834;6.286;2022-08-21T12:18:18;4.32;;;2.17;;
15142;SDS011;7672;50.834;6.286;2022-08-21T12:20:59;3.40;;;2.30;;
15142;SDS011;7672;50.834;6.286;2022-08-21T12:31:58;4.78;;;2.33;;
15142;SDS011;7672;50.834;6.286;2022-08-21T12:34:53;4.72;;;2.28;;
15142;SDS011;7672;50.834;6.286;2022-08-21T12:40:32;4.05;;;2.20;;
15142;SDS011;7672;50.834;6.286;2022-08-21T12:43:16;3.60;;;2.20;;
15142;SDS011;7672;50.834;6.286;2022-08-21T12:45:51;4.60;;;2.40;;
15142;SDS011;7672;50.834;6.286;2022-08-21T12:51:13;5.80;;;2.55;;
15142;SDS011;7672;50.834;6.286;2022-08-21T12:53:55;3.80;;;2.30;;
15142;SDS011;7672;50.834;6.286;2022-08-21T12:56:26;3.00;;;1.98;;
15142;SDS011;7672;50.834;6.286;2022-08-21T12:59:03;3.33;;;2.20;;
15142;SDS011;7672;50.834;6.286;2022-08-21T13:01:39;3.92;;;2.00;;
15142;SDS011;7672;50.834;6.286;2022-08-21T13:04:16;4.97;;;2.20;;
15142;SDS011;7672;50.834;6.286;2022-08-21T13:07:06;4.05;;;2.05;;
15142;SDS011;7672;50.834;6.286;2022-08-21T13:09:44;3.92;;;1.80;;
15142;SDS011;7672;50.834;6.286;2022-08-21T13:12:19;3.05;;;1.80;;
15142;SDS011;7672;50.834;6.286;2022-08-21T13:14:55;4.68;;;2.08;;
15142;SDS011;7672;50.834;6.286;2022-08-21T13:17:29;4.00;;;2.05;;
15142;SDS011;7672;50.834;6.286;2022-08-21T13:20:09;4.78;;;2.17;;
15142;SDS011;7672;50.834;6.286;2022-08-21T13:22:48;3.42;;;2.03;;
15142;SDS011;7672;50.834;6.286;2022-08-21T13:25:17;2.70;;;1.73;;
15142;SDS011;7672;50.834;6.286;2022-08-21T13:28:03;3.88;;;2.10;;
15142;SDS011;7672;50.834;6.286;2022-08-21T13:30:38;2.60;;;1.90;;
15142;SDS011;7672;50.834;6.286;2022-08-21T13:33:09;3.15;;;2.03;;
15142;SDS011;7672;50.834;6.286;2022-08-21T13:38:26;4.00;;;2.20;;
15142;SDS011;7672;50.834;6.286;2022-08-21T13:40:59;4.25;;;2.25;;
15142;SDS011;7672;50.834;6.286;2022-08-21T13:43:34;2.40;;;1.88;;
15142;SDS011;7672;50.834;6.286;2022-08-21T13:46:06;3.78;;;2.05;;
15142;SDS011;7672;50.834;6.286;2022-08-21T13:48:38;3.15;;;1.70;;
15142;SDS011;7672;50.834;6.286;2022-08-21T13:51:05;3.35;;;2.10;;
15142;SDS011;7672;50.834;6.286;2022-08-21T13:53:43;4.53;;;2.28;;
15142;SDS011;7672;50.834;6.286;2022-08-21T13:56:32;3.53;;;1.95;;
15142;SDS011;7672;50.834;6.286;2022-08-21T13:59:11;7.82;;;2.88;;
15142;SDS011;7672;50.834;6.286;2022-08-21T14:01:50;4.03;;;2.00;;
15142;SDS011;7672;50.834;6.286;2022-08-21T14:07:26;4.68;;;2.08;;
15142;SDS011;7672;50.834;6.286;2022-08-21T14:10:14;4.93;;;1.92;;
15142;SDS011;7672;50.834;6.286;2022-08-21T14:13:02;4.15;;;2.50;;
15142;SDS011;7672;50.834;6.286;2022-08-21T14:15:34;4.35;;;2.50;;
15142;SDS011;7672;50.834;6.286;2022-08-21T14:18:13;3.03;;;2.05;;
15142;SDS011;7672;50.834;6.286;2022-08-21T14:21:04;3.65;;;2.00;;
15142;SDS011;7672;50.834;6.286;2022-08-21T14:23:37;3.45;;;2.30;;
15142;SDS011;7672;50.834;6.286;2022-08-21T14:26:07;5.13;;;2.35;;
15142;SDS011;7672;50.834;6.286;2022-08-21T14:28:45;3.08;;;2.10;;
15142;SDS011;7672;50.834;6.286;2022-08-21T14:31:27;4.55;;;1.95;;
15142;SDS011;7672;50.834;6.286;2022-08-21T14:34:15;5.53;;;1.90;;
15142;SDS011;7672;50.834;6.286;2022-08-21T14:37:03;5.72;;;2.13;;
15142;SDS011;7672;50.834;6.286;2022-08-21T14:39:36;3.55;;;2.22;;
15142;SDS011;7672;50.834;6.286;2022-08-21T14:42:13;2.50;;;1.63;;
15142;SDS011;7672;50.834;6.286;2022-08-21T14:44:54;5.55;;;2.10;;
15142;SDS011;7672;50.834;6.286;2022-08-21T14:47:50;4.38;;;2.10;;
15142;SDS011;7672;50.834;6.286;2022-08-21T14:50:18;4.18;;;2.15;;
15142;SDS011;7672;50.834;6.286;2022-08-21T14:52:53;4.10;;;2.05;;
15142;SDS011;7672;50.834;6.286;2022-08-21T14:55:58;4.57;;;1.90;;
15142;SDS011;7672;50.834;6.286;2022-08-21T14:58:46;6.05;;;2.45;;
15142;SDS011;7672;50.834;6.286;2022-08-21T15:01:38;4.05;;;2.50;;
15142;SDS011;7672;50.834;6.286;2022-08-21T15:04:15;4.90;;;2.00;;
15142;SDS011;7672;50.834;6.286;2022-08-21T15:06:47;4.15;;;2.40;;
15142;SDS011;7672;50.834;6.286;2022-08-21T15:09:14;6.30;;;2.13;;
15142;SDS011;7672;50.834;6.286;2022-08-21T15:11:42;3.92;;;2.55;;
15142;SDS011;7672;50.834;6.286;2022-08-21T15:14:10;4.00;;;2.00;;
15142;SDS011;7672;50.834;6.286;2022-08-21T15:16:49;4.60;;;2.55;;
15142;SDS011;7672;50.834;6.286;2022-08-21T15:20:13;3.78;;;2.20;;
15142;SDS011;7672;50.834;6.286;2022-08-21T15:22:41;3.97;;;2.03;;
15142;SDS011;7672;50.834;6.286;2022-08-21T15:25:13;5.38;;;2.50;;
15142;SDS011;7672;50.834;6.286;2022-08-21T15:28:07;3.72;;;2.45;;
15142;SDS011;7672;50.834;6.286;2022-08-21T15:30:36;3.92;;;2.40;;
15142;SDS011;7672;50.834;6.286;2022-08-21T15:33:05;6.68;;;3.00;;
15142;SDS011;7672;50.834;6.286;2022-08-21T15:35:33;4.05;;;2.22;;
15142;SDS011;7672;50.834;6.286;2022-08-21T15:38:06;3.35;;;2.05;;
15142;SDS011;7672;50.834;6.286;2022-08-21T15:40:37;4.13;;;2.10;;
15142;SDS011;7672;50.834;6.286;2022-08-21T15:43:35;3.83;;;2.13;;
15142;SDS011;7672;50.834;6.286;2022-08-21T15:49:40;3.33;;;2.60;;
15142;SDS011;7672;50.834;6.286;2022-08-21T15:52:15;3.40;;;2.17;;
15142;SDS011;7672;50.834;6.286;2022-08-21T15:55:23;3.33;;;2.45;;
15142;SDS011;7672;50.834;6.286;2022-08-21T15:57:51;7.20;;;2.55;;
15142;SDS011;7672;50.834;6.286;2022-08-21T16:00:23;4.47;;;2.40;;
15142;SDS011;7672;50.834;6.286;2022-08-21T16:02:55;3.35;;;2.20;;
15142;SDS011;7672;50.834;6.286;2022-08-21T16:05:26;4.53;;;2.28;;
15142;SDS011;7672;50.834;6.286;2022-08-21T16:07:54;3.42;;;2.25;;
15142;SDS011;7672;50.834;6.286;2022-08-21T16:10:24;5.18;;;2.60;;
15142;SDS011;7672;50.834;6.286;2022-08-21T16:13:03;5.82;;;2.38;;
15142;SDS011;7672;50.834;6.286;2022-08-21T16:15:40;3.08;;;2.42;;
15142;SDS011;7672;50.834;6.286;2022-08-21T16:18:07;5.38;;;2.47;;
15142;SDS011;7672;50.834;6.286;2022-08-21T16:20:38;5.47;;;2.55;;
15142;SDS011;7672;50.834;6.286;2022-08-21T16:23:06;5.63;;;2.75;;
15142;SDS011;7672;50.834;6.286;2022-08-21T16:25:37;5.75;;;2.53;;
15142;SDS011;7672;50.834;6.286;2022-08-21T16:28:14;4.60;;;2.47;;
15142;SDS011;7672;50.834;6.286;2022-08-21T16:30:49;6.60;;;2.70;;
15142;SDS011;7672;50.834;6.286;2022-08-21T16:33:24;4.45;;;2.13;;
15142;SDS011;7672;50.834;6.286;2022-08-21T16:36:51;7.47;;;2.30;;
15142;SDS011;7672;50.834;6.286;2022-08-21T16:39:24;7.22;;;2.65;;
15142;SDS011;7672;50.834;6.286;2022-08-21T16:45:29;5.28;;;2.38;;
15142;SDS011;7672;50.834;6.286;2022-08-21T16:47:58;5.80;;;2.67;;
15142;SDS011;7672;50.834;6.286;2022-08-21T16:50:31;5.93;;;2.45;;
15142;SDS011;7672;50.834;6.286;2022-08-21T16:52:58;4.22;;;2.80;;
15142;SDS011;7672;50.834;6.286;2022-08-21T16:55:31;5.18;;;2.40;;
15142;SDS011;7672;50.834;6.286;2022-08-21T16:58:27;5.88;;;2.53;;
15142;SDS011;7672;50.834;6.286;2022-08-21T17:00:59;5.35;;;2.92;;
15142;SDS011;7672;50.834;6.286;2022-08-21T17:03:34;5.70;;;3.08;;
15142;SDS011;7672;50.834;6.286;2022-08-21T17:06:14;6.40;;;3.05;;
15142;SDS011;7672;50.834;6.286;2022-08-21T17:08:42;6.88;;;2.92;;
15142;SDS011;7672;50.834;6.286;2022-08-21T17:11:19;6.53;;;2.45;;
15142;SDS011;7672;50.834;6.286;2022-08-21T17:14:11;4.63;;;2.35;;
15142;SDS011;7672;50.834;6.286;2022-08-21T17:16:43;4.57;;;2.55;;
15142;SDS011;7672;50.834;6.286;2022-08-21T17:19:15;4.82;;;2.50;;